sensor_id;sensor_type;location;lat;lon;timestamp;pressure;altitude;pressure_sealevel;temperature;humidity
25759;BME280;13604;52.496;13.456;2023-12-20T00:02:02;100472.81;;;5.15;100.00
25759;BME280;13604;52.496;13.456;2023-12-20T00:04:28;100450.97;;;5.10;100.00
25759;BME280;13604;52.496;13.456;2023-12-20T00:06:53;100470.69;;;5.23;100.00
25759;BME280;13604;52.496;13.456;2023-12-20T00:09:18;100473.00;;;5.18;100.00
25759;BME280;13604;52.496;13.456;2023-12-20T00:11:44;100459.63;;;5.10;100.00
25759;BME280;13604;52.496;13.456;2023-12-20T00:14:09;100456.50;;;5.16;100.00
25759;BME280;13604;52.496;13.456;2023-12-20T00:16:34;100471.69;;;5.25;100.00
25759;BME280;13604;52.496;13.456;2023-12-20T00:19:00;100468.19;;;5.24;100.00
25759;BME280;13604;52.496;13.456;2023-12-20T00:21:26;100446.28;;;5.18;100.00
25759;BME280;13604;52.496;13.456;2023-12-20T00:23:51;100445.50;;;5.19;100.00
25759;BME280;13604;52.496;13.456;2023-12-20T00:26:16;100437.16;;;5.09;100.00
25759;BME280;13604;52.496;13.456;2023-12-20T00:28:42;100438.16;;;5.11;100.00
25759;BME280;13604;52.496;13.456;2023-12-20T00:31:08;100452.50;;;5.21;100.00
25759;BME280;13604;52.496;13.456;2023-12-20T00:33:33;100446.28;;;5.18;100.00
25759;BME280;13604;52.496;13.456;2023-12-20T00:35:58;100442.72;;;5.15;100.00
25759;BME280;13604;52.496;13.456;2023-12-20T00:38:23;100444.59;;;5.18;100.00
25759;BME280;13604;52.496;13.456;2023-12-20T00:40:49;100445.69;;;5.22;100.00
25759;BME280;13604;52.496;13.456;2023-12-20T00:43:15;100450.94;;;5.23;100.00
25759;BME280;13604;52.496;13.456;2023-12-20T00:45:40;100450.75;;;5.20;100.00
25759;BME280;13604;52.496;13.456;2023-12-20T00:48:05;100450.66;;;5.19;100.00
25759;BME280;13604;52.496;13.456;2023-12-20T00:50:31;100437.66;;;5.17;100.00
25759;BME280;13604;52.496;13.456;2023-12-20T00:52:56;100432.28;;;5.14;100.00
25759;BME280;13604;52.496;13.456;2023-12-20T00:55:22;100427.31;;;5.17;100.00
25759;BME280;13604;52.496;13.456;2023-12-20T00:57:47;100445.78;;;5.23;100.00
25759;BME280;13604;52.496;13.456;2023-12-20T01:00:13;100417.59;;;5.13;100.00
25759;BME280;13604;52.496;13.456;2023-12-20T01:02:39;100437.66;;;5.17;100.00
25759;BME280;13604;52.496;13.456;2023-12-20T01:05:04;100445.59;;;5.20;100.00
25759;BME280;13604;52.496;13.456;2023-12-20T01:07:30;100430.13;;;5.07;100.00
25759;BME280;13604;52.496;13.456;2023-12-20T01:09:55;100456.00;;;5.22;100.00
25759;BME280;13604;52.496;13.456;2023-12-20T01:12:20;100439.34;;;5.16;100.00
25759;BME280;13604;52.496;13.456;2023-12-20T01:14:46;100449.06;;;5.21;100.00
25759;BME280;13604;52.496;13.456;2023-12-20T01:17:11;100422.41;;;5.07;100.00
25759;BME280;13604;52.496;13.456;2023-12-20T01:19:36;100455.28;;;5.24;100.00
25759;BME280;13604;52.496;13.456;2023-12-20T01:22:01;100458.25;;;5.30;100.00
25759;BME280;13604;52.496;13.456;2023-12-20T01:24:27;100449.63;;;5.30;100.00
25759;BME280;13604;52.496;13.456;2023-12-20T01:26:52;100438.81;;;5.22;100.00
25759;BME280;13604;52.496;13.456;2023-12-20T01:29:17;100416.81;;;5.14;100.00
25759;BME280;13604;52.496;13.456;2023-12-20T01:31:43;100441.50;;;5.24;100.00
25759;BME280;13604;52.496;13.456;2023-12-20T01:34:08;100447.34;;;5.21;100.00
25759;BME280;13604;52.496;13.456;2023-12-20T01:36:33;100451.03;;;5.25;100.00
25759;BME280;13604;52.496;13.456;2023-12-20T01:38:59;100420.16;;;5.13;100.00
25759;BME280;13604;52.496;13.456;2023-12-20T01:41:24;100448.63;;;5.28;100.00
25759;BME280;13604;52.496;13.456;2023-12-20T01:43:50;100443.19;;;5.23;100.00
25759;BME280;13604;52.496;13.456;2023-12-20T01:46:16;100449.44;;;5.27;100.00
25759;BME280;13604;52.496;13.456;2023-12-20T01:48:42;100440.19;;;5.30;100.00
25759;BME280;13604;52.496;13.456;2023-12-20T01:51:07;100439.31;;;5.30;100.00
25759;BME280;13604;52.496;13.456;2023-12-20T01:53:33;100404.69;;;5.13;100.00
25759;BME280;13604;52.496;13.456;2023-12-20T01:56:00;100434.72;;;5.26;100.00
25759;BME280;13604;52.496;13.456;2023-12-20T01:58:26;100418.84;;;5.20;100.00
25759;BME280;13604;52.496;13.456;2023-12-20T02:00:53;100435.91;;;5.31;100.00
25759;BME280;13604;52.496;13.456;2023-12-20T02:03:19;100430.03;;;5.33;100.00
25759;BME280;13604;52.496;13.456;2023-12-20T02:05:45;100417.72;;;5.29;100.00
25759;BME280;13604;52.496;13.456;2023-12-20T02:08:11;100427.47;;;5.33;100.00
25759;BME280;13604;52.496;13.456;2023-12-20T02:10:36;100429.06;;;5.31;100.00
25759;BME280;13604;52.496;13.456;2023-12-20T02:13:02;100412.91;;;5.21;100.00
25759;BME280;13604;52.496;13.456;2023-12-20T02:15:27;100427.47;;;5.33;100.00
25759;BME280;13604;52.496;13.456;2023-12-20T02:17:53;100415.78;;;5.25;100.00
25759;BME280;13604;52.496;13.456;2023-12-20T02:20:18;100430.84;;;5.32;100.00
25759;BME280;13604;52.496;13.456;2023-12-20T02:22:44;100413.53;;;5.16;100.00
25759;BME280;13604;52.496;13.456;2023-12-20T02:25:09;100416.56;;;5.24;100.00
25759;BME280;13604;52.496;13.456;2023-12-20T02:27:35;100421.81;;;5.26;100.00
25759;BME280;13604;52.496;13.456;2023-12-20T02:30:00;100388.41;;;5.14;100.00
25759;BME280;13604;52.496;13.456;2023-12-20T02:32:26;100407.84;;;5.22;100.00
25759;BME280;13604;52.496;13.456;2023-12-20T02:34:51;100393.38;;;5.11;100.00
25759;BME280;13604;52.496;13.456;2023-12-20T02:37:17;100422.91;;;5.29;100.00
25759;BME280;13604;52.496;13.456;2023-12-20T02:39:42;100420.06;;;5.25;100.00
25759;BME280;13604;52.496;13.456;2023-12-20T02:42:07;100413.09;;;5.24;100.00
25759;BME280;13604;52.496;13.456;2023-12-20T02:44:33;100407.41;;;5.29;100.00
25759;BME280;13604;52.496;13.456;2023-12-20T02:46:58;100412.66;;;5.31;100.00
25759;BME280;13604;52.496;13.456;2023-12-20T02:49:23;100412.56;;;5.29;100.00
25759;BME280;13604;52.496;13.456;2023-12-20T02:51:49;100415.78;;;5.25;100.00
25759;BME280;13604;52.496;13.456;2023-12-20T02:54:14;100420.22;;;5.28;100.00
25759;BME280;13604;52.496;13.456;2023-12-20T02:56:40;100405.06;;;5.19;100.00
25759;BME280;13604;52.496;13.456;2023-12-20T02:59:05;100403.66;;;5.24;100.00
25759;BME280;13604;52.496;13.456;2023-12-20T03:01:34;100424.31;;;5.24;100.00
25759;BME280;13604;52.496;13.456;2023-12-20T03:04:00;100413.09;;;5.24;100.00
25759;BME280;13604;52.496;13.456;2023-12-20T03:06:25;100419.88;;;5.22;100.00
25759;BME280;13604;52.496;13.456;2023-12-20T03:08:51;100414.69;;;5.22;100.00
25759;BME280;13604;52.496;13.456;2023-12-20T03:11:16;100395.56;;;5.05;100.00
25759;BME280;13604;52.496;13.456;2023-12-20T03:13:41;100429.13;;;5.18;100.00
25759;BME280;13604;52.496;13.456;2023-12-20T03:16:10;100425.16;;;5.10;100.00
25759;BME280;13604;52.496;13.456;2023-12-20T03:18:36;100427.81;;;5.11;100.00
25759;BME280;13604;52.496;13.456;2023-12-20T03:21:01;100403.41;;;5.06;100.00
25759;BME280;13604;52.496;13.456;2023-12-20T03:23:26;100432.91;;;5.10;100.00
25759;BME280;13604;52.496;13.456;2023-12-20T03:25:52;100436.72;;;5.02;100.00
25759;BME280;13604;52.496;13.456;2023-12-20T03:28:17;100411.28;;;4.94;100.00
25759;BME280;13604;52.496;13.456;2023-12-20T03:30:43;100435.41;;;5.08;100.00
25759;BME280;13604;52.496;13.456;2023-12-20T03:33:08;100415.78;;;4.97;100.00
25759;BME280;13604;52.496;13.456;2023-12-20T03:35:34;100432.44;;;5.02;100.00
25759;BME280;13604;52.496;13.456;2023-12-20T03:37:59;100433.13;;;5.00;100.00
25759;BME280;13604;52.496;13.456;2023-12-20T03:40:25;100408.06;;;4.84;100.00
25759;BME280;13604;52.496;13.456;2023-12-20T03:42:50;100420.16;;;4.85;100.00
25759;BME280;13604;52.496;13.456;2023-12-20T03:45:16;100445.34;;;5.02;100.00
25759;BME280;13604;52.496;13.456;2023-12-20T03:47:41;100433.75;;;4.95;100.00
25759;BME280;13604;52.496;13.456;2023-12-20T03:50:07;100427.22;;;4.87;100.00
25759;BME280;13604;52.496;13.456;2023-12-20T03:52:32;100434.31;;;4.91;100.00
25759;BME280;13604;52.496;13.456;2023-12-20T03:54:57;100425.09;;;4.95;100.00
25759;BME280;13604;52.496;13.456;2023-12-20T03:57:23;100427.31;;;4.89;100.00
25759;BME280;13604;52.496;13.456;2023-12-20T03:59:48;100408.56;;;4.78;100.00
25759;BME280;13604;52.496;13.456;2023-12-20T04:02:13;100414.88;;;4.83;100.00
25759;BME280;13604;52.496;13.456;2023-12-20T04:04:39;100410.94;;;4.75;100.00
25759;BME280;13604;52.496;13.456;2023-12-20T04:07:04;100409.63;;;4.82;100.00
25759;BME280;13604;52.496;13.456;2023-12-20T04:09:29;100408.47;;;4.76;100.00
25759;BME280;13604;52.496;13.456;2023-12-20T04:11:54;100404.38;;;4.80;100.00
25759;BME280;13604;52.496;13.456;2023-12-20T04:14:20;100404.78;;;4.73;100.00
25759;BME280;13604;52.496;13.456;2023-12-20T04:16:45;100375.72;;;4.62;100.00
25759;BME280;13604;52.496;13.456;2023-12-20T04:19:10;100396.75;;;4.68;100.00
25759;BME280;13604;52.496;13.456;2023-12-20T04:21:36;100394.09;;;4.67;100.00
25759;BME280;13604;52.496;13.456;2023-12-20T04:24:01;100384.00;;;4.56;100.00
25759;BME280;13604;52.496;13.456;2023-12-20T04:26:26;100339.38;;;4.31;100.00
25759;BME280;13604;52.496;13.456;2023-12-20T04:28:52;100400.25;;;4.55;100.00
25759;BME280;13604;52.496;13.456;2023-12-20T04:31:17;100396.88;;;4.56;100.00
25759;BME280;13604;52.496;13.456;2023-12-20T04:33:42;100375.97;;;4.38;100.00
25759;BME280;13604;52.496;13.456;2023-12-20T04:36:08;100388.19;;;4.41;100.00
25759;BME280;13604;52.496;13.456;2023-12-20T04:38:34;100393.03;;;4.36;100.00
25759;BME280;13604;52.496;13.456;2023-12-20T04:40:59;100373.41;;;4.25;100.00
25759;BME280;13604;52.496;13.456;2023-12-20T04:43:25;100397.69;;;4.29;100.00
25759;BME280;13604;52.496;13.456;2023-12-20T04:45:50;100384.41;;;4.09;100.00
25759;BME280;13604;52.496;13.456;2023-12-20T04:48:15;100401.06;;;4.14;100.00
25759;BME280;13604;52.496;13.456;2023-12-20T04:50:40;100368.72;;;3.93;100.00
25759;BME280;13604;52.496;13.456;2023-12-20T04:53:06;100389.25;;;4.04;100.00
25759;BME280;13604;52.496;13.456;2023-12-20T04:55:31;100402.84;;;4.02;100.00
25759;BME280;13604;52.496;13.456;2023-12-20T04:57:56;100383.50;;;3.95;100.00
25759;BME280;13604;52.496;13.456;2023-12-20T05:00:22;100386.19;;;3.97;100.00
25759;BME280;13604;52.496;13.456;2023-12-20T05:02:47;100382.44;;;3.92;100.00
25759;BME280;13604;52.496;13.456;2023-12-20T05:05:13;100393.31;;;4.01;100.00
25759;BME280;13604;52.496;13.456;2023-12-20T05:07:40;100405.72;;;4.07;100.00
25759;BME280;13604;52.496;13.456;2023-12-20T05:10:06;100380.13;;;3.96;100.00
25759;BME280;13604;52.496;13.456;2023-12-20T05:12:33;100398.09;;;4.08;100.00
25759;BME280;13604;52.496;13.456;2023-12-20T05:14:58;100407.50;;;4.21;100.00
25759;BME280;13604;52.496;13.456;2023-12-20T05:17:23;100380.53;;;4.16;100.00
25759;BME280;13604;52.496;13.456;2023-12-20T05:19:49;100406.03;;;4.24;100.00
25759;BME280;13604;52.496;13.456;2023-12-20T05:22:14;100397.50;;;4.26;100.00
25759;BME280;13604;52.496;13.456;2023-12-20T05:24:39;100385.09;;;4.20;100.00
25759;BME280;13604;52.496;13.456;2023-12-20T05:27:05;100391.97;;;4.19;100.00
25759;BME280;13604;52.496;13.456;2023-12-20T05:29:30;100400.94;;;4.13;100.00
25759;BME280;13604;52.496;13.456;2023-12-20T05:31:55;100400.38;;;4.03;100.00
25759;BME280;13604;52.496;13.456;2023-12-20T05:34:21;100404.00;;;3.80;100.00
25759;BME280;13604;52.496;13.456;2023-12-20T05:36:46;100401.00;;;3.74;100.00
25759;BME280;13604;52.496;13.456;2023-12-20T05:39:11;100405.28;;;3.74;100.00
25759;BME280;13604;52.496;13.456;2023-12-20T05:41:37;100410.63;;;3.77;100.00
25759;BME280;13604;52.496;13.456;2023-12-20T05:44:02;100405.75;;;3.68;100.00
25759;BME280;13604;52.496;13.456;2023-12-20T05:46:27;100392.25;;;3.59;100.00
25759;BME280;13604;52.496;13.456;2023-12-20T05:48:53;100398.19;;;3.58;100.00
25759;BME280;13604;52.496;13.456;2023-12-20T05:51:18;100402.44;;;3.44;100.00
25759;BME280;13604;52.496;13.456;2023-12-20T05:53:44;100396.69;;;3.48;100.00
25759;BME280;13604;52.496;13.456;2023-12-20T05:56:10;100371.31;;;3.41;100.00
25759;BME280;13604;52.496;13.456;2023-12-20T05:58:35;100389.78;;;3.35;100.00
25759;BME280;13604;52.496;13.456;2023-12-20T06:01:04;100378.19;;;3.28;100.00
25759;BME280;13604;52.496;13.456;2023-12-20T06:03:29;100391.38;;;3.33;100.00
25759;BME280;13604;52.496;13.456;2023-12-20T06:05:54;100407.81;;;3.35;100.00
25759;BME280;13604;52.496;13.456;2023-12-20T06:08:20;100407.59;;;3.32;100.00
25759;BME280;13604;52.496;13.456;2023-12-20T06:10:45;100393.28;;;3.36;100.00
25759;BME280;13604;52.496;13.456;2023-12-20T06:13:10;100384.44;;;3.32;100.00
25759;BME280;13604;52.496;13.456;2023-12-20T06:15:38;100368.59;;;3.26;100.00
25759;BME280;13604;52.496;13.456;2023-12-20T06:18:03;100377.88;;;3.24;100.00
25759;BME280;13604;52.496;13.456;2023-12-20T06:20:28;100365.28;;;3.15;100.00
25759;BME280;13604;52.496;13.456;2023-12-20T06:22:54;100386.03;;;3.30;100.00
25759;BME280;13604;52.496;13.456;2023-12-20T06:25:19;100375.72;;;3.30;100.00
25759;BME280;13604;52.496;13.456;2023-12-20T06:27:44;100373.97;;;3.29;100.00
25759;BME280;13604;52.496;13.456;2023-12-20T06:30:10;100384.25;;;3.29;100.00
25759;BME280;13604;52.496;13.456;2023-12-20T06:32:35;100359.25;;;3.15;100.00
25759;BME280;13604;52.496;13.456;2023-12-20T06:35:01;100380.25;;;3.21;100.00
25759;BME280;13604;52.496;13.456;2023-12-20T06:37:26;100370.97;;;3.23;100.00
25759;BME280;13604;52.496;13.456;2023-12-20T06:39:51;100394.16;;;3.36;100.00
25759;BME280;13604;52.496;13.456;2023-12-20T06:42:16;100378.31;;;3.30;100.00
25759;BME280;13604;52.496;13.456;2023-12-20T06:44:42;100374.41;;;3.23;100.00
25759;BME280;13604;52.496;13.456;2023-12-20T06:47:07;100398.81;;;3.42;100.00
25759;BME280;13604;52.496;13.456;2023-12-20T06:49:32;100391.81;;;3.39;100.00
25759;BME280;13604;52.496;13.456;2023-12-20T06:51:58;100363.34;;;3.24;100.00
25759;BME280;13604;52.496;13.456;2023-12-20T06:54:23;100371.56;;;3.32;100.00
25759;BME280;13604;52.496;13.456;2023-12-20T06:56:48;100383.28;;;3.40;100.00
25759;BME280;13604;52.496;13.456;2023-12-20T06:59:14;100371.66;;;3.34;100.00
25759;BME280;13604;52.496;13.456;2023-12-20T07:01:39;100362.50;;;3.37;100.00
25759;BME280;13604;52.496;13.456;2023-12-20T07:04:04;100381.94;;;3.45;100.00
25759;BME280;13604;52.496;13.456;2023-12-20T07:06:30;100390.03;;;3.52;100.00
25759;BME280;13604;52.496;13.456;2023-12-20T07:08:55;100374.91;;;3.56;100.00
25759;BME280;13604;52.496;13.456;2023-12-20T07:11:20;100383.34;;;3.54;100.00
25759;BME280;13604;52.496;13.456;2023-12-20T07:13:46;100378.91;;;3.64;100.00
25759;BME280;13604;52.496;13.456;2023-12-20T07:16:11;100385.94;;;3.67;100.00
25759;BME280;13604;52.496;13.456;2023-12-20T07:18:37;100373.44;;;3.73;100.00
25759;BME280;13604;52.496;13.456;2023-12-20T07:21:03;100384.78;;;3.75;100.00
25759;BME280;13604;52.496;13.456;2023-12-20T07:23:28;100355.72;;;3.64;100.00
25759;BME280;13604;52.496;13.456;2023-12-20T07:25:53;100378.81;;;3.76;100.00
25759;BME280;13604;52.496;13.456;2023-12-20T07:28:18;100376.66;;;3.82;100.00
25759;BME280;13604;52.496;13.456;2023-12-20T07:30:44;100377.75;;;3.86;100.00
25759;BME280;13604;52.496;13.456;2023-12-20T07:33:09;100364.16;;;3.75;100.00
25759;BME280;13604;52.496;13.456;2023-12-20T07:35:34;100365.94;;;3.76;100.00
25759;BME280;13604;52.496;13.456;2023-12-20T07:38:00;100375.06;;;3.84;100.00
25759;BME280;13604;52.496;13.456;2023-12-20T07:40:25;100357.84;;;3.83;100.00
25759;BME280;13604;52.496;13.456;2023-12-20T07:42:50;100370.22;;;3.89;100.00
25759;BME280;13604;52.496;13.456;2023-12-20T07:45:16;100366.44;;;3.84;100.00
25759;BME280;13604;52.496;13.456;2023-12-20T07:47:41;100344.97;;;3.83;100.00
25759;BME280;13604;52.496;13.456;2023-12-20T07:50:06;100335.13;;;3.78;100.00
25759;BME280;13604;52.496;13.456;2023-12-20T07:52:32;100363.69;;;3.94;100.00
25759;BME280;13604;52.496;13.456;2023-12-20T07:54:57;100328.00;;;3.74;100.00
25759;BME280;13604;52.496;13.456;2023-12-20T07:57:23;100336.94;;;3.79;100.00
25759;BME280;13604;52.496;13.456;2023-12-20T07:59:48;100352.78;;;3.85;100.00
25759;BME280;13604;52.496;13.456;2023-12-20T08:02:14;100346.72;;;3.84;100.00
25759;BME280;13604;52.496;13.456;2023-12-20T08:04:39;100332.19;;;3.85;100.00
25759;BME280;13604;52.496;13.456;2023-12-20T08:07:06;100360.44;;;3.97;100.00
25759;BME280;13604;52.496;13.456;2023-12-20T08:09:31;100372.13;;;4.05;100.00
25759;BME280;13604;52.496;13.456;2023-12-20T08:11:57;100370.31;;;4.04;100.00
25759;BME280;13604;52.496;13.456;2023-12-20T08:14:24;100371.41;;;4.08;100.00
25759;BME280;13604;52.496;13.456;2023-12-20T08:16:49;100370.72;;;4.10;100.00
25759;BME280;13604;52.496;13.456;2023-12-20T08:19:15;100355.94;;;4.08;100.00
25759;BME280;13604;52.496;13.456;2023-12-20T08:21:40;100356.66;;;4.18;100.00
25759;BME280;13604;52.496;13.456;2023-12-20T08:24:06;100291.25;;;3.76;100.00
25759;BME280;13604;52.496;13.456;2023-12-20T08:26:32;100348.63;;;4.00;100.00
25759;BME280;13604;52.496;13.456;2023-12-20T08:28:57;100376.09;;;4.13;100.00
25759;BME280;13604;52.496;13.456;2023-12-20T08:31:23;100371.13;;;4.16;100.00
25759;BME280;13604;52.496;13.456;2023-12-20T08:33:48;100345.63;;;4.08;100.00
25759;BME280;13604;52.496;13.456;2023-12-20T08:36:14;100359.91;;;4.16;100.00
25759;BME280;13604;52.496;13.456;2023-12-20T08:38:39;100342.09;;;4.05;100.00
25759;BME280;13604;52.496;13.456;2023-12-20T08:41:06;100357.22;;;4.14;100.00
25759;BME280;13604;52.496;13.456;2023-12-20T08:43:32;100346.44;;;4.20;100.00
25759;BME280;13604;52.496;13.456;2023-12-20T08:45:57;100355.97;;;4.34;100.00
25759;BME280;13604;52.496;13.456;2023-12-20T08:48:22;100350.09;;;4.37;100.00
25759;BME280;13604;52.496;13.456;2023-12-20T08:50:48;100345.53;;;4.46;100.00
25759;BME280;13604;52.496;13.456;2023-12-20T08:53:15;100335.28;;;4.61;100.00
25759;BME280;13604;52.496;13.456;2023-12-20T08:55:41;100340.78;;;4.81;100.00
25759;BME280;13604;52.496;13.456;2023-12-20T08:58:07;100298.28;;;4.89;100.00
25759;BME280;13604;52.496;13.456;2023-12-20T09:00:33;100341.66;;;5.09;100.00
25759;BME280;13604;52.496;13.456;2023-12-20T09:02:58;100302.44;;;4.87;100.00
25759;BME280;13604;52.496;13.456;2023-12-20T09:05:24;100322.63;;;4.79;100.00
25759;BME280;13604;52.496;13.456;2023-12-20T09:07:50;100344.06;;;4.78;100.00
25759;BME280;13604;52.496;13.456;2023-12-20T09:10:15;100314.31;;;4.70;100.00
25759;BME280;13604;52.496;13.456;2023-12-20T09:12:40;100339.75;;;4.92;100.00
25759;BME280;13604;52.496;13.456;2023-12-20T09:15:07;100342.38;;;5.07;100.00
25759;BME280;13604;52.496;13.456;2023-12-20T09:17:33;100352.94;;;5.25;100.00
25759;BME280;13604;52.496;13.456;2023-12-20T09:19:59;100332.78;;;5.19;100.00
25759;BME280;13604;52.496;13.456;2023-12-20T09:22:25;100323.88;;;5.14;100.00
25759;BME280;13604;52.496;13.456;2023-12-20T09:24:50;100309.88;;;4.95;100.00
25759;BME280;13604;52.496;13.456;2023-12-20T09:27:15;100310.84;;;4.97;100.00
25759;BME280;13604;52.496;13.456;2023-12-20T09:29:41;100322.72;;;5.09;100.00
25759;BME280;13604;52.496;13.456;2023-12-20T09:32:06;100305.09;;;5.02;100.00
25759;BME280;13604;52.496;13.456;2023-12-20T09:34:31;100331.16;;;5.06;100.00
25759;BME280;13604;52.496;13.456;2023-12-20T09:36:57;100328.22;;;5.00;100.00
25759;BME280;13604;52.496;13.456;2023-12-20T09:39:22;100333.97;;;4.96;100.00
25759;BME280;13604;52.496;13.456;2023-12-20T09:42:08;100334.22;;;4.86;100.00
25759;BME280;13604;52.496;13.456;2023-12-20T09:44:36;100317.91;;;4.87;100.00
25759;BME280;13604;52.496;13.456;2023-12-20T09:47:03;100329.34;;;4.90;100.00
25759;BME280;13604;52.496;13.456;2023-12-20T09:49:29;100322.69;;;4.94;100.00
25759;BME280;13604;52.496;13.456;2023-12-20T09:51:55;100335.97;;;5.00;100.00
25759;BME280;13604;52.496;13.456;2023-12-20T09:54:22;100312.44;;;4.95;100.00
25759;BME280;13604;52.496;13.456;2023-12-20T09:56:48;100307.88;;;4.91;100.00
25759;BME280;13604;52.496;13.456;2023-12-20T09:59:14;100316.00;;;4.97;100.00
25759;BME280;13604;52.496;13.456;2023-12-20T10:01:40;100300.69;;;4.86;100.00
25759;BME280;13604;52.496;13.456;2023-12-20T10:04:08;100314.41;;;5.00;100.00
25759;BME280;13604;52.496;13.456;2023-12-20T10:06:41;100301.41;;;4.98;100.00
25759;BME280;13604;52.496;13.456;2023-12-20T10:09:07;100291.81;;;4.95;100.00
25759;BME280;13604;52.496;13.456;2023-12-20T10:11:35;100271.84;;;4.93;100.00
25759;BME280;13604;52.496;13.456;2023-12-20T10:14:00;100275.88;;;5.03;100.00
25759;BME280;13604;52.496;13.456;2023-12-20T10:16:26;100260.75;;;4.94;100.00
25759;BME280;13604;52.496;13.456;2023-12-20T10:18:53;100281.78;;;5.15;100.00
25759;BME280;13604;52.496;13.456;2023-12-20T10:21:18;100269.28;;;5.08;100.00
25759;BME280;13604;52.496;13.456;2023-12-20T10:23:44;100281.69;;;5.13;100.00
25759;BME280;13604;52.496;13.456;2023-12-20T10:26:09;100288.44;;;5.11;100.00
25759;BME280;13604;52.496;13.456;2023-12-20T10:28:35;100238.69;;;4.99;100.00
25759;BME280;13604;52.496;13.456;2023-12-20T10:31:00;100270.63;;;5.16;100.00
25759;BME280;13604;52.496;13.456;2023-12-20T10:33:27;100261.13;;;5.15;100.00
25759;BME280;13604;52.496;13.456;2023-12-20T10:35:53;100255.44;;;5.21;100.00
25759;BME280;13604;52.496;13.456;2023-12-20T10:38:19;100229.97;;;5.12;100.00
25759;BME280;13604;52.496;13.456;2023-12-20T10:40:45;100226.16;;;5.20;100.00
25759;BME280;13604;52.496;13.456;2023-12-20T10:43:11;100243.25;;;5.33;100.00
25759;BME280;13604;52.496;13.456;2023-12-20T10:45:37;100236.38;;;5.33;100.00
25759;BME280;13604;52.496;13.456;2023-12-20T10:48:03;100216.31;;;5.44;100.00
25759;BME280;13604;52.496;13.456;2023-12-20T10:50:29;100233.38;;;5.72;100.00
25759;BME280;13604;52.496;13.456;2023-12-20T10:52:56;100223.88;;;5.71;100.00
25759;BME280;13604;52.496;13.456;2023-12-20T10:55:22;100221.56;;;5.76;100.00
25759;BME280;13604;52.496;13.456;2023-12-20T10:57:50;100210.91;;;5.86;100.00
25759;BME280;13604;52.496;13.456;2023-12-20T11:00:17;100198.03;;;5.71;100.00
25759;BME280;13604;52.496;13.456;2023-12-20T11:02:43;100189.75;;;5.62;100.00
25759;BME280;13604;52.496;13.456;2023-12-20T11:05:38;100203.66;;;5.64;100.00
25759;BME280;13604;52.496;13.456;2023-12-20T11:08:22;100206.31;;;5.65;100.00
25759;BME280;13604;52.496;13.456;2023-12-20T11:13:35;100190.94;;;5.52;100.00
25759;BME280;13604;52.496;13.456;2023-12-20T11:16:02;100194.16;;;5.48;100.00
25759;BME280;13604;52.496;13.456;2023-12-20T11:18:29;100177.69;;;5.31;100.00
25759;BME280;13604;52.496;13.456;2023-12-20T11:20:55;100173.88;;;5.24;100.00
25759;BME280;13604;52.496;13.456;2023-12-20T11:23:25;100181.28;;;5.18;100.00
25759;BME280;13604;52.496;13.456;2023-12-20T11:25:55;100164.53;;;5.11;100.00
25759;BME280;13604;52.496;13.456;2023-12-20T11:28:22;100168.28;;;5.16;100.00
25759;BME280;13604;52.496;13.456;2023-12-20T11:30:53;100157.69;;;5.12;100.00
25759;BME280;13604;52.496;13.456;2023-12-20T11:33:23;100159.75;;;5.03;100.00
25759;BME280;13604;52.496;13.456;2023-12-20T11:35:48;100160.63;;;5.03;100.00
25759;BME280;13604;52.496;13.456;2023-12-20T11:38:14;100140.88;;;4.89;100.00
25759;BME280;13604;52.496;13.456;2023-12-20T11:40:41;100139.09;;;4.88;100.00
25759;BME280;13604;52.496;13.456;2023-12-20T11:43:06;100129.94;;;4.93;100.00
25759;BME280;13604;52.496;13.456;2023-12-20T11:45:31;100087.03;;;4.65;100.00
25759;BME280;13604;52.496;13.456;2023-12-20T11:47:57;100111.09;;;4.79;100.00
25759;BME280;13604;52.496;13.456;2023-12-20T11:50:24;100107.69;;;4.80;100.00
25759;BME280;13604;52.496;13.456;2023-12-20T11:52:51;100126.28;;;4.89;100.00
25759;BME280;13604;52.496;13.456;2023-12-20T11:55:17;100114.03;;;4.85;100.00
25759;BME280;13604;52.496;13.456;2023-12-20T11:57:43;100113.28;;;4.88;100.00
25759;BME280;13604;52.496;13.456;2023-12-20T12:00:09;100101.28;;;4.88;100.00
25759;BME280;13604;52.496;13.456;2023-12-20T12:02:34;100098.69;;;4.88;100.00
25759;BME280;13604;52.496;13.456;2023-12-20T12:05:00;100103.06;;;4.74;100.00
25759;BME280;13604;52.496;13.456;2023-12-20T12:07:25;100090.44;;;4.94;100.00
25759;BME280;13604;52.496;13.456;2023-12-20T12:09:51;100080.03;;;4.92;100.00
25759;BME280;13604;52.496;13.456;2023-12-20T12:12:17;100084.81;;;5.01;100.00
25759;BME280;13604;52.496;13.456;2023-12-20T12:14:44;100069.41;;;5.03;100.00
25759;BME280;13604;52.496;13.456;2023-12-20T12:17:13;100064.59;;;5.09;100.00
25759;BME280;13604;52.496;13.456;2023-12-20T12:19:42;100042.47;;;4.97;100.00
25759;BME280;13604;52.496;13.456;2023-12-20T12:22:30;100027.78;;;4.96;100.00
25759;BME280;13604;52.496;13.456;2023-12-20T12:24:59;100028.91;;;5.16;100.00
25759;BME280;13604;52.496;13.456;2023-12-20T12:27:24;100045.94;;;5.29;100.00
25759;BME280;13604;52.496;13.456;2023-12-20T12:30:03;100031.88;;;5.24;100.00
25759;BME280;13604;52.496;13.456;2023-12-20T12:32:29;100018.50;;;5.15;100.00
25759;BME280;13604;52.496;13.456;2023-12-20T12:34:54;100037.00;;;5.08;100.00
25759;BME280;13604;52.496;13.456;2023-12-20T12:37:20;100015.44;;;4.91;100.00